James Foster

Olheiro - Sunderland
3 Dez 2028
Domingo
Processo

Personalidade

Adaptabilidade (9) Ambição (19) Controvérsia (11) Lealdade (12) Pressão (12) Profissionalismo (15) Espírito Esportivo (15) Temperamento (19)

Perfil

Estilo de Treinamento Democrático
Licença Continental Pro
Determinação 8
Gestão de Pessoas 10
Motivação 6
Disciplina 9
Satisfação no Trabalho
100%
Fadiga
0%
Função Olheiro
Salário 62.3K p/s
Contrato 14.03.2030

Desempenho

Comportamento Bom
Eficácia do Treinamento
44%
Desenvolvimento do Jogador
45%
Prevenção de Lesões
45%
Implementação Tática
35%

Eventos Recentes

Participou de uma reunião de recrutamento 7d atrás
Recomendou um alvo de transferência 7d atrás
Participou de uma reunião de recrutamento 14d atrás
Recomendou um alvo de transferência 14d atrás
Participou de uma reunião de recrutamento 21d atrás
Recomendou um alvo de transferência 21d atrás
Participou de uma reunião de recrutamento 28d atrás
Recomendou um alvo de transferência 28d atrás

Monitorando agora

122
Jogador Clube Status Habilidade Confiança Observado Última observação Último voto
Liam Thompson Mansfield Town Perdido 125 / 128 83% 1 28.08.2028 -
Harrison Armstrong Ipswich Town Ativo 138 / 142 40% 1 31.07.2028 -
Tobías Andrada River Plate Ativo 118 / 120 40% 1 31.07.2028 -
Kiani Inge Groningen Ativo 112 / 122 40% 1 31.07.2028 -
Christos Mouzakitis Hull City Ativo 136 / 151 40% 8 18.07.2028 -
Mirza Ćatović VfB Stuttgart Ativo 126 / 125 40% 1 18.07.2028 -
Augusto Bando Ascoli Ativo 109 / 117 40% 1 18.07.2028 -
Sydie Peck Swindon Town Perdido 137 / 138 83% 1 17.07.2028 -
Kerim Alajbegović Modena Ativo 135 / 142 40% 5 30.05.2028 -
Jake Evans Crewe Alexandra Ativo 108 / 125 40% 7 28.05.2028 -
Eli Junior Kroupi Bournemouth Ativo 146 / 153 40% 4 28.05.2028 -
Ryan McAidoo Oldham Athletic Ativo 122 / 127 40% 8 23.05.2028 -
Ibrahim Fullah Charlton Athletic Ativo 125 / 120 40% 7 23.05.2028 -
Rio Ngumoha Plymouth Argyle Ativo 137 / 153 40% 4 23.05.2028 -
Martim Cunha Porto Ativo 105 / 116 40% 4 22.05.2028 -
Daniel Banjaqui Benfica Ativo 120 / 129 40% 3 22.05.2028 -
Ryan Oné Sheffield United Ativo 125 / 130 40% 1 22.05.2028 -
Igor Tyjon Barrow AFC Ativo 118 / 126 40% 9 20.05.2028 -
Josh Nichols Oldham Athletic Ativo 121 / 129 40% 5 20.05.2028 -
André Miranda Porto Ativo 118 / 121 40% 7 20.05.2028 -
Shea Lacey Crystal Palace Ativo 131 / 141 40% 8 19.05.2028 -
Endrick Boca Juniors Ativo 159 / 166 40% 3 19.05.2028 -
Babis Kostoulas Oxford United Ativo 146 / 147 40% 11 14.05.2028 -
Henrique Carmo Sochi Ativo 132 / 130 40% 8 12.05.2028 -
Luca Williams-Barnett Walsall Ativo 123 / 133 40% 4 12.05.2028 -
Giovanni Cantizano Fulham Ativo 118 / 122 40% 6 11.05.2028 -
Jan Bürger Northampton Town Ativo 123 / 121 40% 6 09.05.2028 -
Mateus Mané Burnley Ativo 145 / 147 40% 6 07.05.2028 -
Gabriel Mec Feirense Ativo 129 / 129 40% 6 04.05.2028 -
Jamal Iddrissou Pergolettese Ativo 112 / 120 40% 1 04.05.2028 -
Eduardo Fernandes Benfica Ativo 116 / 120 40% 3 03.05.2028 -
Oscar Schwartau Norwich City Ativo 126 / 132 40% 6 01.05.2028 -
Ben Broggio Mansfield Town Ativo 105 / 119 40% 4 01.05.2028 -
Bernardo Lima Porto Ativo 112 / 121 40% 1 01.05.2028 -
Josh Acheampong Everton Ativo 144 / 148 40% 3 28.04.2028 -
Honest Ahanor Atalanta Ativo 134 / 141 40% 8 27.04.2028 -
Ryan Kavuma-McQueen Accrington Stanley Ativo 119 / 134 40% 3 24.04.2028 -
Oskar Pietuszewski Estrela da Amadora Ativo 130 / 135 40% 3 24.04.2028 -
Trey Nyoni Rotherham United Ativo 142 / 151 40% 4 23.04.2028 -
Romelle Donovan Brentford Ativo 127 / 130 40% 8 22.04.2028 -
Otto Stange Borussia Mönchengladbach Ativo 123 / 131 40% 3 22.04.2028 -
Amin Nabizada Exeter City Ativo 109 / 114 40% 5 14.04.2028 -
Gabe Forsyth Colchester United Ativo 109 / 113 40% 6 11.04.2028 -
İsak Vural Audace Cerignola Ativo 123 / 124 40% 1 09.04.2028 -
Omar Khedr Gillingham Ativo 116 / 124 40% 5 07.04.2028 -
Ethan Nwaneri Arsenal Ativo 152 / 153 40% 2 29.03.2028 -
Sindre Walle Egeli Udinese Ativo 136 / 142 40% 10 10.03.2028 -
Alphadjo Cissé Lecce Ativo 135 / 135 40% 2 25.02.2028 -
Julian Hall Real Salt Lake Ativo 103 / 112 40% 2 24.02.2028 -
Bazoumana Touré Newcastle United Ativo 147 / 156 40% 4 22.02.2028 -
Tyler Fletcher Rotherham United Ativo 115 / 123 40% 2 18.02.2028 -
Esquerdinha Notts County Ativo 123 / 131 40% 1 11.02.2028 -
Lewis Orford Crewe Alexandra Ativo 106 / 114 40% 1 08.02.2028 -
Ole Romeny Oxford United Ativo 112 / 117 83% 1 24.01.2028 -
Vangelis Pavlidis Real Madrid Ativo 152 / 152 90% 1 17.01.2028 -
Archie Gray Southampton Ativo 154 / 153 40% 1 11.01.2028 -
Gabri Veiga Getafe Ativo 147 / 149 93% 1 01.01.2028 -
Mao Hosoya Santos Ativo 134 / 135 67% 1 01.01.2028 -
Lander Astiazarán Real Sociedad Ativo 100 / 114 40% 3 02.06.2027 -
Marvin Keller Chelsea Ativo 136 / 137 67% 1 01.06.2027 -
Ilyas Ansah Hull City Ativo 137 / 136 40% 3 29.05.2027 -
Joe Gelhardt Hull City Ativo 139 / 132 40% 4 28.05.2027 -
Giacomo Raspadori Atalanta Ativo 153 / 148 40% 6 28.05.2027 -
Nicolas Jackson Aston Villa Ativo 149 / 149 40% 7 25.05.2027 -
Thiago Brentford Ativo 149 / 143 40% 4 25.05.2027 -
Mees Rijks Bristol Rovers Ativo 115 / 111 40% 2 25.05.2027 -
Lorent Tolaj Plymouth Argyle Ativo 114 / 122 40% 3 24.05.2027 -
Josh Coburn Millwall Ativo 118 / 126 40% 2 24.05.2027 -
Mohamed-Ali Cho Hull City Ativo 141 / 131 40% 3 23.05.2027 -
Tyrese Campbell Sheffield United Ativo 124 / 131 40% 2 23.05.2027 -
Othmane Maamma Watford Ativo 126 / 127 40% 2 22.05.2027 -
Malik Mothersille Stockport County Ativo 111 / 117 40% 6 19.05.2027 -
Aune Heggebø West Bromwich Albion Ativo 131 / 124 40% 4 19.05.2027 -
Nestory Irankunda Watford Ativo 124 / 132 40% 3 19.05.2027 -
Mohamadou Kanté Crawley Town Ativo 117 / 117 40% 1 18.05.2027 -
Rodrigo Muniz Fulham Ativo 135 / 134 40% 3 15.05.2027 -
Sam Greenwood Bristol City Ativo 118 / 120 40% 4 12.05.2027 -
Jørgen Strand Larsen Brighton Ativo 147 / 148 40% 2 12.05.2027 -
Yousef Salech Cardiff City Ativo 122 / 131 40% 5 11.05.2027 -
Luke Baartman Ajax Cape Town Ativo 98 / 118 40% 2 11.05.2027 -
Caleb Yirenkyi Coventry City Ativo 135 / 143 40% 1 10.05.2027 -
Lorenzo Colombo Genoa Ativo 140 / 137 40% 1 09.05.2027 -
Marezi Portsmouth Ativo 115 / 123 40% 1 06.05.2027 -
Fábio Carvalho Brentford Ativo 142 / 134 40% 1 06.05.2027 -
Nicolò Zaniolo Udinese Ativo 147 / 140 40% 1 05.05.2027 -
Wandile Duba ASO Chlef Ativo 103 / 103 40% 5 03.05.2027 -
Leo Castledine Middlesbrough Ativo 125 / 134 40% 1 02.05.2027 -
Ethan Williams Peterborough United Ativo 116 / 113 40% 1 01.05.2027 -
Eddie Nketiah Crystal Palace Ativo 146 / 141 40% 2 29.04.2027 -
Stephen Amankona Aduana Stars Ativo 92 / 100 40% 2 22.04.2027 -
Mathys Tel Tottenham Ativo 138 / 152 40% 2 20.04.2027 -
Riley Owen Stevenage Ativo 103 / 104 40% 1 20.04.2027 -
Georginio Rutter Brighton Ativo 148 / 143 40% 7 04.04.2027 -
Erick Dolly Black Aces Ativo 107 / 116 40% 4 03.04.2027 -
Etiosa Ighodaro Kaizer Chiefs Ativo 108 / 112 40% 3 26.03.2027 -
Evidence Makgopa Orlando Pirates Ativo 108 / 110 40% 1 20.03.2027 -
Iliman N'Diaye Everton Ativo 155 / 159 40% 5 28.12.2026 -
Jack Rudoni Coventry City Ativo 134 / 137 40% 1 27.12.2026 -
Manu Koné AS Roma Ativo 166 / 158 40% 2 25.12.2026 -
Sandro Tonali Tottenham Ativo 171 / 169 40% 2 13.12.2026 -
Adam Wharton Crystal Palace Ativo 147 / 149 40% 1 13.12.2026 -
Amine Adli Bournemouth Ativo 144 / 137 40% 2 12.12.2026 -
Jadon Sancho Manchester United Ativo 146 / 148 40% 1 08.12.2026 -
Alex Scott Bournemouth Ativo 150 / 150 40% 2 05.12.2026 -
Kevin Fulham Ativo 145 / 144 40% 3 05.12.2026 -
Savinho Tottenham Ativo 157 / 153 40% 2 04.12.2026 -
Tino Livramento Newcastle United Ativo 149 / 158 40% 1 04.12.2026 -
Manor Solomon West Ham United Ativo 141 / 142 40% 3 03.12.2026 -
Reece James Chelsea Ativo 174 / 170 40% 1 03.12.2026 -
Florentino Luís Ipswich Town Ativo 143 / 136 40% 1 02.12.2026 -
Xavi Simons Tottenham Ativo 155 / 161 40% 1 02.12.2026 -
Dejan Joveljić Seattle Sounders Ativo 129 / 129 40% 2 29.11.2026 -
Mats Wieffer Brighton Ativo 152 / 141 40% 1 27.11.2026 -
Wessam Abou Ali Columbus Crew Ativo 135 / 125 40% 2 21.11.2026 -
Óscar Mingueza Crystal Palace Ativo 155 / 153 40% 1 18.11.2026 -
Mikkel Damsgaard Brentford Ativo 145 / 140 40% 1 16.11.2026 -
Kévin Denkey FC Cincinnati Ativo 124 / 120 40% 1 15.11.2026 -
Sota Kitano Red Bull Salzburg Ativo 124 / 118 40% 1 15.11.2026 -
Moisés Caicedo Chelsea Ativo 171 / 164 40% 1 12.11.2026 -
Martín Ojeda Orlando City Ativo 139 / 138 40% 2 09.11.2026 -
Matt O'Riley Brighton Ativo 148 / 140 40% 1 09.11.2026 -
Maxim De Cuyper Brighton Ativo 137 / 134 76% 1 24.08.2026 Aprovar